sensor_id;sensor_type;location;lat;lon;timestamp;P1;durP1;ratioP1;P2;durP2;ratioP2
10761;SDS011;5433;50.862;4.320;2023-05-16T00:01:12;11.73;;;2.38;;
10761;SDS011;5433;50.862;4.320;2023-05-16T00:03:38;10.70;;;2.20;;
10761;SDS011;5433;50.862;4.320;2023-05-16T00:06:04;13.63;;;2.17;;
10761;SDS011;5433;50.862;4.320;2023-05-16T00:08:30;15.00;;;2.50;;
10761;SDS011;5433;50.862;4.320;2023-05-16T00:10:56;13.55;;;2.30;;
10761;SDS011;5433;50.862;4.320;2023-05-16T00:13:23;10.48;;;2.13;;
10761;SDS011;5433;50.862;4.320;2023-05-16T00:15:50;12.77;;;2.40;;
10761;SDS011;5433;50.862;4.320;2023-05-16T00:18:16;12.85;;;2.42;;
10761;SDS011;5433;50.862;4.320;2023-05-16T00:20:43;10.93;;;2.28;;
10761;SDS011;5433;50.862;4.320;2023-05-16T00:23:09;12.45;;;2.42;;
10761;SDS011;5433;50.862;4.320;2023-05-16T00:25:36;13.05;;;2.67;;
10761;SDS011;5433;50.862;4.320;2023-05-16T00:28:02;13.27;;;2.42;;
10761;SDS011;5433;50.862;4.320;2023-05-16T00:30:31;11.85;;;2.33;;
10761;SDS011;5433;50.862;4.320;2023-05-16T00:32:57;7.60;;;1.75;;
10761;SDS011;5433;50.862;4.320;2023-05-16T00:35:23;11.00;;;2.20;;
10761;SDS011;5433;50.862;4.320;2023-05-16T00:37:49;12.75;;;2.00;;
10761;SDS011;5433;50.862;4.320;2023-05-16T00:40:16;10.27;;;2.10;;
10761;SDS011;5433;50.862;4.320;2023-05-16T00:42:42;10.02;;;1.85;;
10761;SDS011;5433;50.862;4.320;2023-05-16T00:45:08;18.10;;;2.25;;
10761;SDS011;5433;50.862;4.320;2023-05-16T00:47:35;12.73;;;2.20;;
10761;SDS011;5433;50.862;4.320;2023-05-16T00:50:01;11.25;;;2.30;;
10761;SDS011;5433;50.862;4.320;2023-05-16T00:52:28;9.90;;;1.95;;
10761;SDS011;5433;50.862;4.320;2023-05-16T00:54:54;10.18;;;2.13;;
10761;SDS011;5433;50.862;4.320;2023-05-16T00:57:21;11.63;;;2.20;;
10761;SDS011;5433;50.862;4.320;2023-05-16T00:59:47;10.77;;;2.40;;
10761;SDS011;5433;50.862;4.320;2023-05-16T01:02:13;13.43;;;2.10;;
10761;SDS011;5433;50.862;4.320;2023-05-16T01:04:40;9.77;;;2.13;;
10761;SDS011;5433;50.862;4.320;2023-05-16T01:07:06;10.10;;;2.00;;
10761;SDS011;5433;50.862;4.320;2023-05-16T01:09:32;9.70;;;2.28;;
10761;SDS011;5433;50.862;4.320;2023-05-16T01:14:53;8.60;;;1.63;;
10761;SDS011;5433;50.862;4.320;2023-05-16T01:17:28;7.90;;;2.25;;
10761;SDS011;5433;50.862;4.320;2023-05-16T01:27:39;14.35;;;2.50;;
10761;SDS011;5433;50.862;4.320;2023-05-16T01:30:18;11.65;;;2.63;;
10761;SDS011;5433;50.862;4.320;2023-05-16T01:32:44;10.60;;;2.35;;
10761;SDS011;5433;50.862;4.320;2023-05-16T01:35:11;12.07;;;2.70;;
10761;SDS011;5433;50.862;4.320;2023-05-16T01:38:04;12.27;;;2.25;;
10761;SDS011;5433;50.862;4.320;2023-05-16T01:42:56;16.55;;;3.05;;
10761;SDS011;5433;50.862;4.320;2023-05-16T01:45:25;12.07;;;2.28;;
10761;SDS011;5433;50.862;4.320;2023-05-16T01:48:04;10.52;;;2.25;;
10761;SDS011;5433;50.862;4.320;2023-05-16T01:50:33;13.00;;;2.65;;
10761;SDS011;5433;50.862;4.320;2023-05-16T01:53:32;10.60;;;2.53;;
10761;SDS011;5433;50.862;4.320;2023-05-16T01:55:48;14.25;;;2.60;;
10761;SDS011;5433;50.862;4.320;2023-05-16T01:58:14;9.00;;;2.45;;
10761;SDS011;5433;50.862;4.320;2023-05-16T02:00:41;12.48;;;2.47;;
10761;SDS011;5433;50.862;4.320;2023-05-16T02:03:07;11.82;;;2.55;;
10761;SDS011;5433;50.862;4.320;2023-05-16T02:05:34;18.42;;;2.63;;
10761;SDS011;5433;50.862;4.320;2023-05-16T02:08:00;12.48;;;2.30;;
10761;SDS011;5433;50.862;4.320;2023-05-16T02:10:26;11.93;;;2.30;;
10761;SDS011;5433;50.862;4.320;2023-05-16T02:12:52;10.00;;;2.20;;
10761;SDS011;5433;50.862;4.320;2023-05-16T02:15:19;12.18;;;2.65;;
10761;SDS011;5433;50.862;4.320;2023-05-16T02:17:45;7.55;;;2.20;;
10761;SDS011;5433;50.862;4.320;2023-05-16T02:20:12;10.95;;;2.50;;
10761;SDS011;5433;50.862;4.320;2023-05-16T02:22:38;10.20;;;2.30;;
10761;SDS011;5433;50.862;4.320;2023-05-16T02:25:06;9.90;;;2.50;;
10761;SDS011;5433;50.862;4.320;2023-05-16T02:27:33;10.52;;;2.15;;
10761;SDS011;5433;50.862;4.320;2023-05-16T02:29:59;12.98;;;2.88;;
10761;SDS011;5433;50.862;4.320;2023-05-16T02:32:25;7.60;;;2.03;;
10761;SDS011;5433;50.862;4.320;2023-05-16T02:34:51;7.82;;;2.20;;
10761;SDS011;5433;50.862;4.320;2023-05-16T02:37:17;10.23;;;2.40;;
10761;SDS011;5433;50.862;4.320;2023-05-16T02:39:43;11.40;;;2.60;;
10761;SDS011;5433;50.862;4.320;2023-05-16T02:42:10;9.77;;;2.50;;
10761;SDS011;5433;50.862;4.320;2023-05-16T02:44:36;8.88;;;2.30;;
10761;SDS011;5433;50.862;4.320;2023-05-16T02:47:02;10.77;;;2.30;;
10761;SDS011;5433;50.862;4.320;2023-05-16T02:49:28;11.02;;;2.67;;
10761;SDS011;5433;50.862;4.320;2023-05-16T02:51:54;7.55;;;2.53;;
10761;SDS011;5433;50.862;4.320;2023-05-16T02:54:20;12.38;;;2.55;;
10761;SDS011;5433;50.862;4.320;2023-05-16T02:56:46;12.18;;;2.28;;
10761;SDS011;5433;50.862;4.320;2023-05-16T02:59:12;11.45;;;2.58;;
10761;SDS011;5433;50.862;4.320;2023-05-16T03:01:38;11.68;;;2.30;;
10761;SDS011;5433;50.862;4.320;2023-05-16T03:04:04;13.07;;;2.80;;
10761;SDS011;5433;50.862;4.320;2023-05-16T03:06:30;10.43;;;2.95;;
10761;SDS011;5433;50.862;4.320;2023-05-16T03:08:57;12.68;;;2.30;;
10761;SDS011;5433;50.862;4.320;2023-05-16T03:11:23;16.05;;;3.00;;
10761;SDS011;5433;50.862;4.320;2023-05-16T03:13:50;10.48;;;2.35;;
10761;SDS011;5433;50.862;4.320;2023-05-16T03:16:16;11.13;;;2.25;;
10761;SDS011;5433;50.862;4.320;2023-05-16T03:18:42;12.52;;;2.58;;
10761;SDS011;5433;50.862;4.320;2023-05-16T03:21:09;9.90;;;2.53;;
10761;SDS011;5433;50.862;4.320;2023-05-16T03:23:35;14.35;;;2.55;;
10761;SDS011;5433;50.862;4.320;2023-05-16T03:26:01;12.82;;;3.05;;
10761;SDS011;5433;50.862;4.320;2023-05-16T03:28:27;10.35;;;2.25;;
10761;SDS011;5433;50.862;4.320;2023-05-16T03:30:53;9.93;;;2.40;;
10761;SDS011;5433;50.862;4.320;2023-05-16T03:33:19;8.95;;;2.50;;
10761;SDS011;5433;50.862;4.320;2023-05-16T03:35:45;9.68;;;2.42;;
10761;SDS011;5433;50.862;4.320;2023-05-16T03:38:11;17.23;;;2.50;;
10761;SDS011;5433;50.862;4.320;2023-05-16T03:40:38;9.80;;;2.78;;
10761;SDS011;5433;50.862;4.320;2023-05-16T03:43:04;8.82;;;2.50;;
10761;SDS011;5433;50.862;4.320;2023-05-16T03:45:30;14.35;;;2.75;;
10761;SDS011;5433;50.862;4.320;2023-05-16T03:47:57;9.32;;;2.75;;
10761;SDS011;5433;50.862;4.320;2023-05-16T03:50:23;15.60;;;2.88;;
10761;SDS011;5433;50.862;4.320;2023-05-16T03:52:49;10.63;;;2.97;;
10761;SDS011;5433;50.862;4.320;2023-05-16T03:55:16;11.80;;;2.63;;
10761;SDS011;5433;50.862;4.320;2023-05-16T03:57:45;10.23;;;2.70;;
10761;SDS011;5433;50.862;4.320;2023-05-16T04:00:14;13.10;;;3.20;;
10761;SDS011;5433;50.862;4.320;2023-05-16T04:02:40;10.20;;;2.58;;
10761;SDS011;5433;50.862;4.320;2023-05-16T04:05:08;13.63;;;2.83;;
10761;SDS011;5433;50.862;4.320;2023-05-16T04:07:34;13.90;;;2.60;;
10761;SDS011;5433;50.862;4.320;2023-05-16T04:10:00;10.52;;;2.67;;
10761;SDS011;5433;50.862;4.320;2023-05-16T04:12:26;12.18;;;2.67;;
10761;SDS011;5433;50.862;4.320;2023-05-16T04:14:52;12.20;;;2.90;;
10761;SDS011;5433;50.862;4.320;2023-05-16T04:17:18;11.88;;;2.80;;
10761;SDS011;5433;50.862;4.320;2023-05-16T04:19:45;8.23;;;2.45;;
10761;SDS011;5433;50.862;4.320;2023-05-16T04:22:11;7.95;;;2.38;;
10761;SDS011;5433;50.862;4.320;2023-05-16T04:24:37;9.30;;;2.20;;
10761;SDS011;5433;50.862;4.320;2023-05-16T04:27:03;12.05;;;2.65;;
10761;SDS011;5433;50.862;4.320;2023-05-16T04:29:33;8.75;;;2.47;;
10761;SDS011;5433;50.862;4.320;2023-05-16T04:31:59;8.32;;;2.40;;
10761;SDS011;5433;50.862;4.320;2023-05-16T04:34:26;9.02;;;2.70;;
10761;SDS011;5433;50.862;4.320;2023-05-16T04:36:52;10.13;;;2.72;;
10761;SDS011;5433;50.862;4.320;2023-05-16T04:39:19;9.85;;;2.38;;
10761;SDS011;5433;50.862;4.320;2023-05-16T04:41:45;9.45;;;2.55;;
10761;SDS011;5433;50.862;4.320;2023-05-16T04:44:11;10.95;;;2.20;;
10761;SDS011;5433;50.862;4.320;2023-05-16T04:46:37;10.30;;;2.20;;
10761;SDS011;5433;50.862;4.320;2023-05-16T04:49:03;7.47;;;1.90;;
10761;SDS011;5433;50.862;4.320;2023-05-16T04:51:30;8.82;;;1.95;;
10761;SDS011;5433;50.862;4.320;2023-05-16T04:53:57;11.02;;;2.55;;
10761;SDS011;5433;50.862;4.320;2023-05-16T04:56:23;6.82;;;2.20;;
10761;SDS011;5433;50.862;4.320;2023-05-16T04:58:50;9.35;;;2.33;;
10761;SDS011;5433;50.862;4.320;2023-05-16T05:01:17;11.52;;;2.20;;
10761;SDS011;5433;50.862;4.320;2023-05-16T05:03:43;8.00;;;2.28;;
10761;SDS011;5433;50.862;4.320;2023-05-16T05:06:09;8.63;;;2.20;;
10761;SDS011;5433;50.862;4.320;2023-05-16T05:08:35;10.65;;;1.90;;
10761;SDS011;5433;50.862;4.320;2023-05-16T05:11:01;10.13;;;2.65;;
10761;SDS011;5433;50.862;4.320;2023-05-16T05:13:28;5.25;;;2.05;;
10761;SDS011;5433;50.862;4.320;2023-05-16T05:15:54;5.43;;;2.00;;
10761;SDS011;5433;50.862;4.320;2023-05-16T05:18:20;9.80;;;2.35;;
10761;SDS011;5433;50.862;4.320;2023-05-16T05:20:46;9.20;;;2.20;;
10761;SDS011;5433;50.862;4.320;2023-05-16T05:23:13;9.48;;;2.40;;
10761;SDS011;5433;50.862;4.320;2023-05-16T05:25:39;11.52;;;2.40;;
10761;SDS011;5433;50.862;4.320;2023-05-16T05:28:05;6.22;;;2.15;;
10761;SDS011;5433;50.862;4.320;2023-05-16T05:30:31;10.60;;;2.10;;
10761;SDS011;5433;50.862;4.320;2023-05-16T05:32:57;10.18;;;2.28;;
10761;SDS011;5433;50.862;4.320;2023-05-16T05:35:23;4.72;;;1.80;;
10761;SDS011;5433;50.862;4.320;2023-05-16T05:37:49;7.50;;;1.90;;
10761;SDS011;5433;50.862;4.320;2023-05-16T05:40:15;6.60;;;2.05;;
10761;SDS011;5433;50.862;4.320;2023-05-16T05:42:41;10.48;;;2.50;;
10761;SDS011;5433;50.862;4.320;2023-05-16T05:45:07;6.95;;;2.10;;
10761;SDS011;5433;50.862;4.320;2023-05-16T05:47:33;8.48;;;2.13;;
10761;SDS011;5433;50.862;4.320;2023-05-16T05:49:59;8.65;;;2.22;;
10761;SDS011;5433;50.862;4.320;2023-05-16T05:52:26;8.20;;;2.38;;
10761;SDS011;5433;50.862;4.320;2023-05-16T05:54:52;8.38;;;2.30;;
10761;SDS011;5433;50.862;4.320;2023-05-16T05:57:18;7.88;;;2.15;;
10761;SDS011;5433;50.862;4.320;2023-05-16T05:59:45;6.53;;;1.95;;
10761;SDS011;5433;50.862;4.320;2023-05-16T06:02:11;8.52;;;2.15;;
10761;SDS011;5433;50.862;4.320;2023-05-16T06:04:37;9.52;;;2.00;;
10761;SDS011;5433;50.862;4.320;2023-05-16T06:07:03;8.98;;;2.20;;
10761;SDS011;5433;50.862;4.320;2023-05-16T06:09:29;6.85;;;1.90;;
10761;SDS011;5433;50.862;4.320;2023-05-16T06:11:56;8.57;;;2.17;;
10761;SDS011;5433;50.862;4.320;2023-05-16T06:14:22;8.70;;;2.17;;
10761;SDS011;5433;50.862;4.320;2023-05-16T06:16:48;7.22;;;1.83;;
10761;SDS011;5433;50.862;4.320;2023-05-16T06:19:14;11.40;;;2.35;;
10761;SDS011;5433;50.862;4.320;2023-05-16T06:21:40;8.50;;;2.10;;
10761;SDS011;5433;50.862;4.320;2023-05-16T06:24:07;10.48;;;2.25;;
10761;SDS011;5433;50.862;4.320;2023-05-16T06:26:33;10.02;;;2.20;;
10761;SDS011;5433;50.862;4.320;2023-05-16T06:28:59;9.85;;;2.03;;
10761;SDS011;5433;50.862;4.320;2023-05-16T06:31:25;6.95;;;1.67;;
10761;SDS011;5433;50.862;4.320;2023-05-16T06:33:51;8.20;;;2.08;;
10761;SDS011;5433;50.862;4.320;2023-05-16T06:36:17;8.38;;;1.90;;
10761;SDS011;5433;50.862;4.320;2023-05-16T06:38:43;6.60;;;1.65;;
10761;SDS011;5433;50.862;4.320;2023-05-16T06:41:10;6.93;;;1.67;;
10761;SDS011;5433;50.862;4.320;2023-05-16T06:43:36;7.38;;;2.10;;
10761;SDS011;5433;50.862;4.320;2023-05-16T06:46:02;5.80;;;1.75;;
10761;SDS011;5433;50.862;4.320;2023-05-16T06:48:28;8.05;;;1.88;;
10761;SDS011;5433;50.862;4.320;2023-05-16T06:50:54;11.90;;;2.00;;
10761;SDS011;5433;50.862;4.320;2023-05-16T06:53:21;9.57;;;1.95;;
10761;SDS011;5433;50.862;4.320;2023-05-16T06:55:47;6.13;;;1.92;;
10761;SDS011;5433;50.862;4.320;2023-05-16T06:58:13;9.35;;;2.00;;
10761;SDS011;5433;50.862;4.320;2023-05-16T07:00:39;8.65;;;1.80;;
10761;SDS011;5433;50.862;4.320;2023-05-16T07:03:06;6.97;;;1.55;;
10761;SDS011;5433;50.862;4.320;2023-05-16T07:05:32;9.35;;;2.10;;
10761;SDS011;5433;50.862;4.320;2023-05-16T07:07:58;9.23;;;2.00;;
10761;SDS011;5433;50.862;4.320;2023-05-16T07:10:27;10.15;;;1.85;;
10761;SDS011;5433;50.862;4.320;2023-05-16T07:12:53;7.30;;;1.88;;
10761;SDS011;5433;50.862;4.320;2023-05-16T07:15:19;4.75;;;1.58;;
10761;SDS011;5433;50.862;4.320;2023-05-16T07:17:45;6.68;;;1.70;;
10761;SDS011;5433;50.862;4.320;2023-05-16T07:20:11;6.85;;;1.70;;
10761;SDS011;5433;50.862;4.320;2023-05-16T07:22:38;7.70;;;1.80;;
10761;SDS011;5433;50.862;4.320;2023-05-16T07:25:05;6.45;;;1.70;;
10761;SDS011;5433;50.862;4.320;2023-05-16T07:27:36;8.80;;;1.95;;
10761;SDS011;5433;50.862;4.320;2023-05-16T07:30:02;6.25;;;1.80;;
10761;SDS011;5433;50.862;4.320;2023-05-16T07:32:28;6.60;;;2.00;;
10761;SDS011;5433;50.862;4.320;2023-05-16T07:34:54;8.60;;;1.60;;
10761;SDS011;5433;50.862;4.320;2023-05-16T07:37:20;5.30;;;1.30;;
10761;SDS011;5433;50.862;4.320;2023-05-16T07:39:46;7.25;;;1.50;;
10761;SDS011;5433;50.862;4.320;2023-05-16T07:42:13;3.17;;;1.23;;
10761;SDS011;5433;50.862;4.320;2023-05-16T07:44:39;3.05;;;1.10;;
10761;SDS011;5433;50.862;4.320;2023-05-16T07:47:05;9.15;;;1.65;;
10761;SDS011;5433;50.862;4.320;2023-05-16T07:49:31;4.63;;;1.33;;
10761;SDS011;5433;50.862;4.320;2023-05-16T07:51:57;6.65;;;1.60;;
10761;SDS011;5433;50.862;4.320;2023-05-16T07:54:23;6.45;;;1.30;;
10761;SDS011;5433;50.862;4.320;2023-05-16T07:56:49;4.68;;;1.27;;
10761;SDS011;5433;50.862;4.320;2023-05-16T07:59:15;5.18;;;1.00;;
10761;SDS011;5433;50.862;4.320;2023-05-16T08:01:41;4.40;;;1.23;;
10761;SDS011;5433;50.862;4.320;2023-05-16T08:04:07;6.70;;;1.30;;
10761;SDS011;5433;50.862;4.320;2023-05-16T08:06:33;4.25;;;1.20;;
10761;SDS011;5433;50.862;4.320;2023-05-16T08:09:01;4.80;;;1.60;;
10761;SDS011;5433;50.862;4.320;2023-05-16T08:11:27;5.30;;;1.30;;
10761;SDS011;5433;50.862;4.320;2023-05-16T08:13:53;6.18;;;1.35;;
10761;SDS011;5433;50.862;4.320;2023-05-16T08:16:19;6.57;;;1.40;;
10761;SDS011;5433;50.862;4.320;2023-05-16T08:18:45;8.48;;;1.65;;
10761;SDS011;5433;50.862;4.320;2023-05-16T08:21:11;8.00;;;1.55;;
10761;SDS011;5433;50.862;4.320;2023-05-16T08:23:38;9.43;;;1.58;;
10761;SDS011;5433;50.862;4.320;2023-05-16T08:26:04;5.63;;;1.40;;
10761;SDS011;5433;50.862;4.320;2023-05-16T08:28:30;7.22;;;1.20;;
10761;SDS011;5433;50.862;4.320;2023-05-16T08:30:57;5.65;;;1.52;;
10761;SDS011;5433;50.862;4.320;2023-05-16T08:33:23;7.60;;;1.60;;
10761;SDS011;5433;50.862;4.320;2023-05-16T08:35:49;3.47;;;1.33;;
10761;SDS011;5433;50.862;4.320;2023-05-16T08:38:18;5.40;;;1.40;;
10761;SDS011;5433;50.862;4.320;2023-05-16T08:40:44;8.50;;;1.30;;
10761;SDS011;5433;50.862;4.320;2023-05-16T08:43:11;3.75;;;1.20;;
10761;SDS011;5433;50.862;4.320;2023-05-16T08:45:37;5.47;;;1.30;;
10761;SDS011;5433;50.862;4.320;2023-05-16T08:48:05;7.55;;;2.33;;
10761;SDS011;5433;50.862;4.320;2023-05-16T08:50:32;3.45;;;0.98;;
10761;SDS011;5433;50.862;4.320;2023-05-16T08:52:58;6.40;;;1.48;;
10761;SDS011;5433;50.862;4.320;2023-05-16T08:55:29;5.32;;;1.00;;
10761;SDS011;5433;50.862;4.320;2023-05-16T08:57:55;5.55;;;1.20;;
10761;SDS011;5433;50.862;4.320;2023-05-16T09:00:22;5.03;;;1.10;;
10761;SDS011;5433;50.862;4.320;2023-05-16T09:02:51;5.90;;;1.42;;
10761;SDS011;5433;50.862;4.320;2023-05-16T09:05:18;7.15;;;1.60;;
10761;SDS011;5433;50.862;4.320;2023-05-16T09:07:44;6.30;;;1.40;;
10761;SDS011;5433;50.862;4.320;2023-05-16T09:10:10;6.20;;;1.38;;
10761;SDS011;5433;50.862;4.320;2023-05-16T09:12:37;6.95;;;1.60;;
10761;SDS011;5433;50.862;4.320;2023-05-16T09:15:07;5.80;;;1.27;;
10761;SDS011;5433;50.862;4.320;2023-05-16T09:17:44;5.65;;;1.70;;
10761;SDS011;5433;50.862;4.320;2023-05-16T09:20:14;7.18;;;2.70;;
10761;SDS011;5433;50.862;4.320;2023-05-16T09:22:50;3.55;;;1.13;;
10761;SDS011;5433;50.862;4.320;2023-05-16T09:25:17;5.03;;;1.20;;
10761;SDS011;5433;50.862;4.320;2023-05-16T09:27:45;2.78;;;1.15;;
10761;SDS011;5433;50.862;4.320;2023-05-16T09:30:12;5.57;;;1.20;;
10761;SDS011;5433;50.862;4.320;2023-05-16T09:32:41;4.00;;;1.35;;
10761;SDS011;5433;50.862;4.320;2023-05-16T09:35:09;6.05;;;1.30;;
10761;SDS011;5433;50.862;4.320;2023-05-16T09:37:46;5.03;;;1.20;;
10761;SDS011;5433;50.862;4.320;2023-05-16T09:40:13;3.30;;;1.02;;
10761;SDS011;5433;50.862;4.320;2023-05-16T09:42:39;6.13;;;1.08;;
10761;SDS011;5433;50.862;4.320;2023-05-16T09:45:05;3.85;;;0.95;;
10761;SDS011;5433;50.862;4.320;2023-05-16T09:47:32;5.03;;;1.25;;
10761;SDS011;5433;50.862;4.320;2023-05-16T09:50:01;2.13;;;1.00;;
10761;SDS011;5433;50.862;4.320;2023-05-16T09:52:27;4.68;;;1.00;;
10761;SDS011;5433;50.862;4.320;2023-05-16T09:54:54;3.42;;;1.00;;
10761;SDS011;5433;50.862;4.320;2023-05-16T09:57:20;5.32;;;1.25;;
10761;SDS011;5433;50.862;4.320;2023-05-16T09:59:47;2.13;;;1.00;;
10761;SDS011;5433;50.862;4.320;2023-05-16T10:02:14;5.03;;;1.27;;
10761;SDS011;5433;50.862;4.320;2023-05-16T10:04:40;4.35;;;1.60;;
10761;SDS011;5433;50.862;4.320;2023-05-16T10:07:07;5.10;;;1.30;;
10761;SDS011;5433;50.862;4.320;2023-05-16T10:09:34;2.97;;;1.20;;
10761;SDS011;5433;50.862;4.320;2023-05-16T10:12:00;5.72;;;1.45;;
10761;SDS011;5433;50.862;4.320;2023-05-16T10:14:28;5.60;;;1.45;;
10761;SDS011;5433;50.862;4.320;2023-05-16T10:16:55;4.57;;;1.10;;
10761;SDS011;5433;50.862;4.320;2023-05-16T10:22:03;5.25;;;1.10;;
10761;SDS011;5433;50.862;4.320;2023-05-16T10:24:51;5.80;;;1.20;;
10761;SDS011;5433;50.862;4.320;2023-05-16T10:27:20;3.65;;;1.05;;
10761;SDS011;5433;50.862;4.320;2023-05-16T10:29:50;3.35;;;1.00;;
10761;SDS011;5433;50.862;4.320;2023-05-16T10:32:17;4.68;;;0.95;;
10761;SDS011;5433;50.862;4.320;2023-05-16T10:34:44;1.70;;;0.90;;
10761;SDS011;5433;50.862;4.320;2023-05-16T10:37:10;2.90;;;1.20;;
10761;SDS011;5433;50.862;4.320;2023-05-16T10:39:37;6.03;;;1.15;;
10761;SDS011;5433;50.862;4.320;2023-05-16T10:42:03;4.55;;;1.10;;
10761;SDS011;5433;50.862;4.320;2023-05-16T10:44:31;2.50;;;0.80;;
10761;SDS011;5433;50.862;4.320;2023-05-16T10:47:00;3.30;;;0.95;;
10761;SDS011;5433;50.862;4.320;2023-05-16T10:49:29;1.40;;;0.70;;
10761;SDS011;5433;50.862;4.320;2023-05-16T10:52:11;2.58;;;1.00;;
10761;SDS011;5433;50.862;4.320;2023-05-16T10:54:40;4.07;;;1.13;;
10761;SDS011;5433;50.862;4.320;2023-05-16T10:57:10;3.40;;;1.20;;
10761;SDS011;5433;50.862;4.320;2023-05-16T10:59:46;1.88;;;1.00;;
10761;SDS011;5433;50.862;4.320;2023-05-16T11:02:31;3.75;;;1.00;;
10761;SDS011;5433;50.862;4.320;2023-05-16T11:04:59;2.65;;;1.10;;
10761;SDS011;5433;50.862;4.320;2023-05-16T11:07:36;5.07;;;1.10;;
10761;SDS011;5433;50.862;4.320;2023-05-16T11:12:36;3.03;;;0.93;;
10761;SDS011;5433;50.862;4.320;2023-05-16T11:15:15;3.08;;;1.13;;
10761;SDS011;5433;50.862;4.320;2023-05-16T11:17:42;3.67;;;0.90;;
10761;SDS011;5433;50.862;4.320;2023-05-16T11:20:09;2.83;;;1.20;;
10761;SDS011;5433;50.862;4.320;2023-05-16T11:22:49;2.80;;;1.17;;
10761;SDS011;5433;50.862;4.320;2023-05-16T11:25:15;3.05;;;1.13;;
10761;SDS011;5433;50.862;4.320;2023-05-16T11:27:42;3.53;;;1.33;;
10761;SDS011;5433;50.862;4.320;2023-05-16T11:32:38;3.15;;;1.27;;
10761;SDS011;5433;50.862;4.320;2023-05-16T11:35:05;3.17;;;1.10;;
10761;SDS011;5433;50.862;4.320;2023-05-16T11:37:32;4.38;;;1.00;;
10761;SDS011;5433;50.862;4.320;2023-05-16T11:40:00;4.20;;;1.40;;
10761;SDS011;5433;50.862;4.320;2023-05-16T11:42:30;3.88;;;1.42;;
10761;SDS011;5433;50.862;4.320;2023-05-16T11:45:07;2.45;;;0.90;;
10761;SDS011;5433;50.862;4.320;2023-05-16T11:47:40;4.13;;;1.25;;
10761;SDS011;5433;50.862;4.320;2023-05-16T11:50:09;1.75;;;0.90;;
10761;SDS011;5433;50.862;4.320;2023-05-16T11:52:44;7.55;;;1.30;;
10761;SDS011;5433;50.862;4.320;2023-05-16T11:55:10;4.15;;;1.15;;
10761;SDS011;5433;50.862;4.320;2023-05-16T11:57:37;4.35;;;1.25;;
10761;SDS011;5433;50.862;4.320;2023-05-16T12:00:03;5.68;;;1.10;;
10761;SDS011;5433;50.862;4.320;2023-05-16T12:02:31;4.78;;;1.00;;
10761;SDS011;5433;50.862;4.320;2023-05-16T12:04:58;3.40;;;1.20;;
10761;SDS011;5433;50.862;4.320;2023-05-16T12:07:27;4.15;;;1.02;;
10761;SDS011;5433;50.862;4.320;2023-05-16T12:09:53;5.28;;;1.55;;
10761;SDS011;5433;50.862;4.320;2023-05-16T12:12:20;3.33;;;1.20;;
10761;SDS011;5433;50.862;4.320;2023-05-16T12:14:46;2.75;;;0.90;;
10761;SDS011;5433;50.862;4.320;2023-05-16T12:17:12;3.60;;;1.05;;
10761;SDS011;5433;50.862;4.320;2023-05-16T12:19:38;3.90;;;1.20;;
10761;SDS011;5433;50.862;4.320;2023-05-16T12:22:11;1.60;;;0.80;;
10761;SDS011;5433;50.862;4.320;2023-05-16T12:24:41;2.42;;;1.00;;
10761;SDS011;5433;50.862;4.320;2023-05-16T12:27:07;4.85;;;1.10;;
10761;SDS011;5433;50.862;4.320;2023-05-16T12:29:33;2.55;;;1.02;;
10761;SDS011;5433;50.862;4.320;2023-05-16T12:31:59;3.13;;;1.00;;
10761;SDS011;5433;50.862;4.320;2023-05-16T12:34:27;2.03;;;0.82;;
10761;SDS011;5433;50.862;4.320;2023-05-16T12:36:56;3.20;;;1.10;;
10761;SDS011;5433;50.862;4.320;2023-05-16T12:39:25;3.03;;;0.95;;
10761;SDS011;5433;50.862;4.320;2023-05-16T12:41:51;2.47;;;0.80;;
10761;SDS011;5433;50.862;4.320;2023-05-16T12:44:18;2.83;;;1.10;;
10761;SDS011;5433;50.862;4.320;2023-05-16T12:46:44;2.05;;;0.80;;
10761;SDS011;5433;50.862;4.320;2023-05-16T12:49:12;3.20;;;0.90;;
10761;SDS011;5433;50.862;4.320;2023-05-16T12:51:38;2.05;;;0.70;;
10761;SDS011;5433;50.862;4.320;2023-05-16T12:54:08;2.58;;;0.70;;
10761;SDS011;5433;50.862;4.320;2023-05-16T12:56:35;1.52;;;0.85;;
10761;SDS011;5433;50.862;4.320;2023-05-16T12:59:02;2.58;;;0.70;;
10761;SDS011;5433;50.862;4.320;2023-05-16T13:01:28;2.97;;;0.70;;
10761;SDS011;5433;50.862;4.320;2023-05-16T13:03:54;3.35;;;1.00;;
10761;SDS011;5433;50.862;4.320;2023-05-16T13:06:20;3.33;;;1.00;;
10761;SDS011;5433;50.862;4.320;2023-05-16T13:08:46;4.32;;;0.90;;
10761;SDS011;5433;50.862;4.320;2023-05-16T13:11:12;1.75;;;0.80;;
10761;SDS011;5433;50.862;4.320;2023-05-16T13:13:38;3.58;;;1.00;;
10761;SDS011;5433;50.862;4.320;2023-05-16T13:16:04;3.15;;;1.15;;
10761;SDS011;5433;50.862;4.320;2023-05-16T13:18:30;1.67;;;0.98;;
10761;SDS011;5433;50.862;4.320;2023-05-16T13:20:58;2.25;;;0.90;;
10761;SDS011;5433;50.862;4.320;2023-05-16T13:23:24;3.08;;;1.00;;
10761;SDS011;5433;50.862;4.320;2023-05-16T13:25:51;4.05;;;1.10;;
10761;SDS011;5433;50.862;4.320;2023-05-16T13:28:17;3.85;;;1.10;;
10761;SDS011;5433;50.862;4.320;2023-05-16T13:30:43;2.22;;;1.13;;
10761;SDS011;5433;50.862;4.320;2023-05-16T13:33:09;4.45;;;1.10;;
10761;SDS011;5433;50.862;4.320;2023-05-16T13:35:35;2.10;;;0.93;;
10761;SDS011;5433;50.862;4.320;2023-05-16T13:38:02;4.28;;;0.93;;
10761;SDS011;5433;50.862;4.320;2023-05-16T13:40:28;4.35;;;1.00;;
10761;SDS011;5433;50.862;4.320;2023-05-16T13:42:54;4.72;;;1.02;;
10761;SDS011;5433;50.862;4.320;2023-05-16T13:45:21;2.38;;;0.90;;
10761;SDS011;5433;50.862;4.320;2023-05-16T13:47:47;3.03;;;0.90;;
10761;SDS011;5433;50.862;4.320;2023-05-16T13:50:13;3.00;;;0.90;;
10761;SDS011;5433;50.862;4.320;2023-05-16T13:52:40;2.05;;;0.98;;
10761;SDS011;5433;50.862;4.320;2023-05-16T13:55:06;3.78;;;0.90;;
10761;SDS011;5433;50.862;4.320;2023-05-16T13:57:33;2.42;;;0.77;;
10761;SDS011;5433;50.862;4.320;2023-05-16T13:59:59;2.92;;;1.30;;
10761;SDS011;5433;50.862;4.320;2023-05-16T14:02:25;1.42;;;0.80;;
10761;SDS011;5433;50.862;4.320;2023-05-16T14:04:51;1.85;;;1.10;;
10761;SDS011;5433;50.862;4.320;2023-05-16T14:07:17;2.58;;;0.98;;
10761;SDS011;5433;50.862;4.320;2023-05-16T14:09:43;3.38;;;1.10;;
10761;SDS011;5433;50.862;4.320;2023-05-16T14:12:09;3.53;;;1.08;;
10761;SDS011;5433;50.862;4.320;2023-05-16T14:14:36;1.20;;;0.73;;
10761;SDS011;5433;50.862;4.320;2023-05-16T14:17:02;2.28;;;0.70;;
10761;SDS011;5433;50.862;4.320;2023-05-16T14:19:28;4.97;;;0.98;;
10761;SDS011;5433;50.862;4.320;2023-05-16T14:21:55;2.97;;;1.08;;
10761;SDS011;5433;50.862;4.320;2023-05-16T14:24:21;1.73;;;0.63;;
10761;SDS011;5433;50.862;4.320;2023-05-16T14:26:47;3.03;;;0.90;;
10761;SDS011;5433;50.862;4.320;2023-05-16T14:29:13;2.58;;;1.00;;
10761;SDS011;5433;50.862;4.320;2023-05-16T14:31:39;3.22;;;0.98;;
10761;SDS011;5433;50.862;4.320;2023-05-16T14:34:05;2.00;;;0.90;;
10761;SDS011;5433;50.862;4.320;2023-05-16T14:36:31;2.63;;;0.80;;
10761;SDS011;5433;50.862;4.320;2023-05-16T14:38:57;3.53;;;1.02;;
10761;SDS011;5433;50.862;4.320;2023-05-16T14:41:24;3.05;;;1.00;;
10761;SDS011;5433;50.862;4.320;2023-05-16T14:43:50;3.50;;;0.95;;
10761;SDS011;5433;50.862;4.320;2023-05-16T14:46:16;5.22;;;1.10;;
10761;SDS011;5433;50.862;4.320;2023-05-16T14:48:42;2.92;;;1.13;;
10761;SDS011;5433;50.862;4.320;2023-05-16T14:51:08;4.03;;;0.95;;
10761;SDS011;5433;50.862;4.320;2023-05-16T14:53:34;2.97;;;0.95;;
10761;SDS011;5433;50.862;4.320;2023-05-16T14:56:01;2.65;;;0.93;;
10761;SDS011;5433;50.862;4.320;2023-05-16T14:58:27;2.47;;;0.90;;
10761;SDS011;5433;50.862;4.320;2023-05-16T15:00:53;3.50;;;0.88;;
10761;SDS011;5433;50.862;4.320;2023-05-16T15:03:19;3.70;;;1.20;;
10761;SDS011;5433;50.862;4.320;2023-05-16T15:05:45;1.95;;;0.80;;
10761;SDS011;5433;50.862;4.320;2023-05-16T15:08:11;2.13;;;0.68;;
10761;SDS011;5433;50.862;4.320;2023-05-16T15:10:38;4.88;;;1.10;;
10761;SDS011;5433;50.862;4.320;2023-05-16T15:13:04;2.53;;;1.02;;
10761;SDS011;5433;50.862;4.320;2023-05-16T15:15:30;3.38;;;0.90;;
10761;SDS011;5433;50.862;4.320;2023-05-16T15:17:57;3.85;;;0.82;;